sensor_id;sensor_type;location;lat;lon;timestamp;P1;durP1;ratioP1;P2;durP2;ratioP2
53931;SDS011;39844;52.496;13.482;2024-03-02T00:00:48;16.17;;;9.87;;
53931;SDS011;39844;52.496;13.482;2024-03-02T00:03:14;22.43;;;10.30;;
53931;SDS011;39844;52.496;13.482;2024-03-02T00:05:40;17.97;;;10.90;;
53931;SDS011;39844;52.496;13.482;2024-03-02T00:08:05;25.20;;;11.10;;
53931;SDS011;39844;52.496;13.482;2024-03-02T00:10:36;17.53;;;10.47;;
53931;SDS011;39844;52.496;13.482;2024-03-02T00:13:02;16.97;;;10.47;;
53931;SDS011;39844;52.496;13.482;2024-03-02T00:18:13;19.70;;;10.23;;
53931;SDS011;39844;52.496;13.482;2024-03-02T00:20:41;21.17;;;11.47;;
53931;SDS011;39844;52.496;13.482;2024-03-02T00:23:07;21.87;;;11.23;;
53931;SDS011;39844;52.496;13.482;2024-03-02T00:25:44;19.07;;;11.63;;
53931;SDS011;39844;52.496;13.482;2024-03-02T00:28:17;24.40;;;12.67;;
53931;SDS011;39844;52.496;13.482;2024-03-02T00:30:55;19.97;;;11.63;;
53931;SDS011;39844;52.496;13.482;2024-03-02T00:33:23;18.23;;;11.30;;
53931;SDS011;39844;52.496;13.482;2024-03-02T00:35:50;14.43;;;9.43;;
53931;SDS011;39844;52.496;13.482;2024-03-02T00:38:16;19.60;;;11.97;;
53931;SDS011;39844;52.496;13.482;2024-03-02T00:40:42;21.33;;;12.13;;
53931;SDS011;39844;52.496;13.482;2024-03-02T00:46:04;23.10;;;12.33;;
53931;SDS011;39844;52.496;13.482;2024-03-02T00:48:30;20.93;;;11.90;;
53931;SDS011;39844;52.496;13.482;2024-03-02T00:50:55;25.90;;;12.00;;
53931;SDS011;39844;52.496;13.482;2024-03-02T00:53:22;25.50;;;11.97;;
53931;SDS011;39844;52.496;13.482;2024-03-02T00:55:48;18.87;;;11.07;;
53931;SDS011;39844;52.496;13.482;2024-03-02T00:58:14;20.97;;;11.53;;
53931;SDS011;39844;52.496;13.482;2024-03-02T01:00:39;21.70;;;12.33;;
53931;SDS011;39844;52.496;13.482;2024-03-02T01:03:04;21.20;;;11.90;;
53931;SDS011;39844;52.496;13.482;2024-03-02T01:05:29;23.27;;;12.13;;
53931;SDS011;39844;52.496;13.482;2024-03-02T01:07:55;23.30;;;11.93;;
53931;SDS011;39844;52.496;13.482;2024-03-02T01:10:20;19.90;;;11.37;;
53931;SDS011;39844;52.496;13.482;2024-03-02T01:12:45;18.33;;;11.97;;
53931;SDS011;39844;52.496;13.482;2024-03-02T01:15:11;23.00;;;12.20;;
53931;SDS011;39844;52.496;13.482;2024-03-02T01:17:36;24.50;;;12.30;;
53931;SDS011;39844;52.496;13.482;2024-03-02T01:20:01;19.97;;;12.43;;
53931;SDS011;39844;52.496;13.482;2024-03-02T01:22:26;23.33;;;12.73;;
53931;SDS011;39844;52.496;13.482;2024-03-02T01:24:52;27.47;;;13.83;;
53931;SDS011;39844;52.496;13.482;2024-03-02T01:27:17;22.17;;;14.17;;
53931;SDS011;39844;52.496;13.482;2024-03-02T01:29:42;20.63;;;12.60;;
53931;SDS011;39844;52.496;13.482;2024-03-02T01:32:08;22.53;;;12.63;;
53931;SDS011;39844;52.496;13.482;2024-03-02T01:34:33;21.53;;;12.17;;
53931;SDS011;39844;52.496;13.482;2024-03-02T01:36:58;27.70;;;14.33;;
53931;SDS011;39844;52.496;13.482;2024-03-02T01:39:23;23.60;;;12.70;;
53931;SDS011;39844;52.496;13.482;2024-03-02T01:41:49;25.10;;;14.17;;
53931;SDS011;39844;52.496;13.482;2024-03-02T01:44:14;23.63;;;12.33;;
53931;SDS011;39844;52.496;13.482;2024-03-02T01:46:39;22.20;;;13.73;;
53931;SDS011;39844;52.496;13.482;2024-03-02T01:49:05;21.70;;;12.73;;
53931;SDS011;39844;52.496;13.482;2024-03-02T01:51:31;26.33;;;14.07;;
53931;SDS011;39844;52.496;13.482;2024-03-02T01:53:56;19.50;;;11.07;;
53931;SDS011;39844;52.496;13.482;2024-03-02T01:56:21;23.33;;;13.70;;
53931;SDS011;39844;52.496;13.482;2024-03-02T01:58:47;22.90;;;13.00;;
53931;SDS011;39844;52.496;13.482;2024-03-02T02:01:12;28.47;;;13.27;;
53931;SDS011;39844;52.496;13.482;2024-03-02T02:03:37;23.70;;;13.23;;
53931;SDS011;39844;52.496;13.482;2024-03-02T02:06:03;25.87;;;13.17;;
53931;SDS011;39844;52.496;13.482;2024-03-02T02:08:28;23.90;;;12.33;;
53931;SDS011;39844;52.496;13.482;2024-03-02T02:10:53;23.90;;;12.63;;
53931;SDS011;39844;52.496;13.482;2024-03-02T02:13:19;26.67;;;13.83;;
53931;SDS011;39844;52.496;13.482;2024-03-02T02:15:44;26.87;;;14.50;;
53931;SDS011;39844;52.496;13.482;2024-03-02T02:18:09;27.20;;;13.97;;
53931;SDS011;39844;52.496;13.482;2024-03-02T02:20:35;23.37;;;13.13;;
53931;SDS011;39844;52.496;13.482;2024-03-02T02:23:01;22.07;;;12.90;;
53931;SDS011;39844;52.496;13.482;2024-03-02T02:25:27;23.87;;;14.03;;
53931;SDS011;39844;52.496;13.482;2024-03-02T02:27:53;25.27;;;13.60;;
53931;SDS011;39844;52.496;13.482;2024-03-02T02:30:23;24.60;;;14.13;;
53931;SDS011;39844;52.496;13.482;2024-03-02T02:32:56;29.43;;;14.47;;
53931;SDS011;39844;52.496;13.482;2024-03-02T02:35:22;26.40;;;13.67;;
53931;SDS011;39844;52.496;13.482;2024-03-02T02:37:47;25.57;;;14.63;;
53931;SDS011;39844;52.496;13.482;2024-03-02T02:40:14;26.17;;;14.53;;
53931;SDS011;39844;52.496;13.482;2024-03-02T02:42:40;27.77;;;14.17;;
53931;SDS011;39844;52.496;13.482;2024-03-02T02:45:05;33.37;;;15.90;;
53931;SDS011;39844;52.496;13.482;2024-03-02T02:47:31;30.20;;;14.47;;
53931;SDS011;39844;52.496;13.482;2024-03-02T02:49:56;24.87;;;14.53;;
53931;SDS011;39844;52.496;13.482;2024-03-02T02:52:22;27.83;;;15.70;;
53931;SDS011;39844;52.496;13.482;2024-03-02T02:54:47;25.20;;;14.77;;
53931;SDS011;39844;52.496;13.482;2024-03-02T02:57:12;26.43;;;14.33;;
53931;SDS011;39844;52.496;13.482;2024-03-02T02:59:37;23.80;;;14.20;;
53931;SDS011;39844;52.496;13.482;2024-03-02T03:02:03;28.53;;;15.87;;
53931;SDS011;39844;52.496;13.482;2024-03-02T03:04:28;30.63;;;16.30;;
53931;SDS011;39844;52.496;13.482;2024-03-02T03:06:53;29.90;;;14.63;;
53931;SDS011;39844;52.496;13.482;2024-03-02T03:09:19;26.70;;;14.47;;
53931;SDS011;39844;52.496;13.482;2024-03-02T03:11:44;27.50;;;14.53;;
53931;SDS011;39844;52.496;13.482;2024-03-02T03:14:09;23.73;;;13.97;;
53931;SDS011;39844;52.496;13.482;2024-03-02T03:16:35;25.10;;;13.00;;
53931;SDS011;39844;52.496;13.482;2024-03-02T03:19:00;22.70;;;13.30;;
53931;SDS011;39844;52.496;13.482;2024-03-02T03:21:25;24.77;;;12.90;;
53931;SDS011;39844;52.496;13.482;2024-03-02T03:23:50;28.83;;;13.07;;
53931;SDS011;39844;52.496;13.482;2024-03-02T03:26:16;22.23;;;12.87;;
53931;SDS011;39844;52.496;13.482;2024-03-02T03:28:41;21.80;;;12.77;;
53931;SDS011;39844;52.496;13.482;2024-03-02T03:31:06;22.07;;;12.07;;
53931;SDS011;39844;52.496;13.482;2024-03-02T03:33:32;19.50;;;12.00;;
53931;SDS011;39844;52.496;13.482;2024-03-02T03:35:57;19.57;;;11.63;;
53931;SDS011;39844;52.496;13.482;2024-03-02T03:38:22;21.03;;;12.47;;
53931;SDS011;39844;52.496;13.482;2024-03-02T03:40:47;19.97;;;12.50;;
53931;SDS011;39844;52.496;13.482;2024-03-02T03:43:13;27.83;;;13.83;;
53931;SDS011;39844;52.496;13.482;2024-03-02T03:45:38;22.20;;;12.43;;
53931;SDS011;39844;52.496;13.482;2024-03-02T03:48:03;20.20;;;12.60;;
53931;SDS011;39844;52.496;13.482;2024-03-02T03:50:29;17.57;;;11.30;;
53931;SDS011;39844;52.496;13.482;2024-03-02T03:52:54;20.50;;;12.10;;
53931;SDS011;39844;52.496;13.482;2024-03-02T03:55:20;21.83;;;12.33;;
53931;SDS011;39844;52.496;13.482;2024-03-02T03:57:45;24.43;;;11.77;;
53931;SDS011;39844;52.496;13.482;2024-03-02T04:00:10;17.83;;;10.73;;
53931;SDS011;39844;52.496;13.482;2024-03-02T04:02:36;21.77;;;12.40;;
53931;SDS011;39844;52.496;13.482;2024-03-02T04:05:01;18.77;;;11.57;;
53931;SDS011;39844;52.496;13.482;2024-03-02T04:07:27;21.47;;;13.30;;
53931;SDS011;39844;52.496;13.482;2024-03-02T04:09:52;20.10;;;12.30;;
53931;SDS011;39844;52.496;13.482;2024-03-02T04:12:17;21.57;;;12.47;;
53931;SDS011;39844;52.496;13.482;2024-03-02T04:14:42;20.83;;;11.67;;
53931;SDS011;39844;52.496;13.482;2024-03-02T04:17:08;24.23;;;13.67;;
53931;SDS011;39844;52.496;13.482;2024-03-02T04:19:33;24.30;;;13.03;;
53931;SDS011;39844;52.496;13.482;2024-03-02T04:21:58;22.10;;;12.10;;
53931;SDS011;39844;52.496;13.482;2024-03-02T04:24:23;25.80;;;13.67;;
53931;SDS011;39844;52.496;13.482;2024-03-02T04:26:49;24.50;;;12.67;;
53931;SDS011;39844;52.496;13.482;2024-03-02T04:29:14;21.17;;;12.50;;
53931;SDS011;39844;52.496;13.482;2024-03-02T04:31:41;17.17;;;10.87;;
53931;SDS011;39844;52.496;13.482;2024-03-02T04:34:07;21.17;;;12.23;;
53931;SDS011;39844;52.496;13.482;2024-03-02T04:36:32;19.43;;;11.37;;
53931;SDS011;39844;52.496;13.482;2024-03-02T04:38:57;17.80;;;12.07;;
53931;SDS011;39844;52.496;13.482;2024-03-02T04:41:23;19.27;;;10.87;;
53931;SDS011;39844;52.496;13.482;2024-03-02T04:43:48;19.87;;;10.93;;
53931;SDS011;39844;52.496;13.482;2024-03-02T04:46:13;19.23;;;10.13;;
53931;SDS011;39844;52.496;13.482;2024-03-02T04:48:39;17.73;;;10.40;;
53931;SDS011;39844;52.496;13.482;2024-03-02T04:51:04;17.97;;;10.53;;
53931;SDS011;39844;52.496;13.482;2024-03-02T04:53:29;19.27;;;10.67;;
53931;SDS011;39844;52.496;13.482;2024-03-02T04:55:54;18.07;;;10.43;;
53931;SDS011;39844;52.496;13.482;2024-03-02T04:58:20;15.80;;;9.77;;
53931;SDS011;39844;52.496;13.482;2024-03-02T05:00:45;15.87;;;10.30;;
53931;SDS011;39844;52.496;13.482;2024-03-02T05:03:10;18.90;;;10.10;;
53931;SDS011;39844;52.496;13.482;2024-03-02T05:05:35;17.60;;;10.43;;
53931;SDS011;39844;52.496;13.482;2024-03-02T05:08:01;17.30;;;10.57;;
53931;SDS011;39844;52.496;13.482;2024-03-02T05:10:26;18.40;;;10.70;;
53931;SDS011;39844;52.496;13.482;2024-03-02T05:12:51;18.30;;;9.87;;
53931;SDS011;39844;52.496;13.482;2024-03-02T05:15:17;18.23;;;10.83;;
53931;SDS011;39844;52.496;13.482;2024-03-02T05:17:42;17.80;;;10.33;;
53931;SDS011;39844;52.496;13.482;2024-03-02T05:20:08;17.97;;;10.80;;
53931;SDS011;39844;52.496;13.482;2024-03-02T05:22:34;18.90;;;10.60;;
53931;SDS011;39844;52.496;13.482;2024-03-02T05:25:02;18.73;;;10.67;;
53931;SDS011;39844;52.496;13.482;2024-03-02T05:27:28;15.47;;;9.73;;
53931;SDS011;39844;52.496;13.482;2024-03-02T05:29:53;14.67;;;9.53;;
53931;SDS011;39844;52.496;13.482;2024-03-02T05:32:19;17.27;;;10.63;;
53931;SDS011;39844;52.496;13.482;2024-03-02T05:34:44;16.50;;;9.50;;
53931;SDS011;39844;52.496;13.482;2024-03-02T05:37:10;16.90;;;9.87;;
53931;SDS011;39844;52.496;13.482;2024-03-02T05:39:35;15.07;;;10.20;;
53931;SDS011;39844;52.496;13.482;2024-03-02T05:42:00;16.07;;;10.17;;
53931;SDS011;39844;52.496;13.482;2024-03-02T05:44:26;17.43;;;10.93;;
53931;SDS011;39844;52.496;13.482;2024-03-02T05:46:51;16.77;;;10.10;;
53931;SDS011;39844;52.496;13.482;2024-03-02T05:49:16;15.37;;;9.60;;
53931;SDS011;39844;52.496;13.482;2024-03-02T05:51:42;19.33;;;9.57;;
53931;SDS011;39844;52.496;13.482;2024-03-02T05:54:07;14.80;;;9.00;;
53931;SDS011;39844;52.496;13.482;2024-03-02T05:56:32;18.13;;;11.03;;
53931;SDS011;39844;52.496;13.482;2024-03-02T05:58:58;19.53;;;11.40;;
53931;SDS011;39844;52.496;13.482;2024-03-02T06:01:23;14.57;;;9.50;;
53931;SDS011;39844;52.496;13.482;2024-03-02T06:03:48;17.97;;;10.43;;
53931;SDS011;39844;52.496;13.482;2024-03-02T06:06:14;17.53;;;10.67;;
53931;SDS011;39844;52.496;13.482;2024-03-02T06:08:39;20.60;;;11.43;;
53931;SDS011;39844;52.496;13.482;2024-03-02T06:11:04;20.67;;;11.87;;
53931;SDS011;39844;52.496;13.482;2024-03-02T06:13:29;18.80;;;10.63;;
53931;SDS011;39844;52.496;13.482;2024-03-02T06:15:55;17.63;;;10.67;;
53931;SDS011;39844;52.496;13.482;2024-03-02T06:18:20;17.50;;;11.20;;
53931;SDS011;39844;52.496;13.482;2024-03-02T06:20:45;17.83;;;11.33;;
53931;SDS011;39844;52.496;13.482;2024-03-02T06:23:10;23.40;;;12.03;;
53931;SDS011;39844;52.496;13.482;2024-03-02T06:25:36;23.03;;;12.23;;
53931;SDS011;39844;52.496;13.482;2024-03-02T06:28:01;19.43;;;11.17;;
53931;SDS011;39844;52.496;13.482;2024-03-02T06:30:27;21.07;;;11.03;;
53931;SDS011;39844;52.496;13.482;2024-03-02T06:32:54;20.80;;;11.70;;
53931;SDS011;39844;52.496;13.482;2024-03-02T06:35:20;18.27;;;10.33;;
53931;SDS011;39844;52.496;13.482;2024-03-02T06:37:45;16.37;;;9.27;;
53931;SDS011;39844;52.496;13.482;2024-03-02T06:40:10;17.87;;;10.40;;
53931;SDS011;39844;52.496;13.482;2024-03-02T06:42:36;17.57;;;10.63;;
53931;SDS011;39844;52.496;13.482;2024-03-02T06:45:01;18.33;;;11.27;;
53931;SDS011;39844;52.496;13.482;2024-03-02T06:47:27;17.87;;;10.93;;
53931;SDS011;39844;52.496;13.482;2024-03-02T06:49:52;22.63;;;11.97;;
53931;SDS011;39844;52.496;13.482;2024-03-02T06:52:18;16.90;;;10.30;;
53931;SDS011;39844;52.496;13.482;2024-03-02T06:54:43;14.87;;;9.30;;
53931;SDS011;39844;52.496;13.482;2024-03-02T06:57:08;17.83;;;10.33;;
53931;SDS011;39844;52.496;13.482;2024-03-02T06:59:33;20.77;;;10.67;;
53931;SDS011;39844;52.496;13.482;2024-03-02T07:01:59;18.40;;;10.37;;
53931;SDS011;39844;52.496;13.482;2024-03-02T07:04:24;16.60;;;9.90;;
53931;SDS011;39844;52.496;13.482;2024-03-02T07:06:50;20.87;;;10.80;;
53931;SDS011;39844;52.496;13.482;2024-03-02T07:09:15;17.93;;;10.10;;
53931;SDS011;39844;52.496;13.482;2024-03-02T07:11:40;18.87;;;10.77;;
53931;SDS011;39844;52.496;13.482;2024-03-02T07:14:05;17.87;;;10.53;;
53931;SDS011;39844;52.496;13.482;2024-03-02T07:16:31;18.00;;;10.83;;
53931;SDS011;39844;52.496;13.482;2024-03-02T07:18:56;17.17;;;11.23;;
53931;SDS011;39844;52.496;13.482;2024-03-02T07:21:21;20.30;;;10.70;;
53931;SDS011;39844;52.496;13.482;2024-03-02T07:23:48;18.23;;;10.63;;
53931;SDS011;39844;52.496;13.482;2024-03-02T07:26:13;20.87;;;10.70;;
53931;SDS011;39844;52.496;13.482;2024-03-02T07:28:39;20.97;;;10.93;;
53931;SDS011;39844;52.496;13.482;2024-03-02T07:31:04;17.33;;;10.73;;
53931;SDS011;39844;52.496;13.482;2024-03-02T07:33:30;19.53;;;11.13;;
53931;SDS011;39844;52.496;13.482;2024-03-02T07:35:56;17.20;;;10.87;;
53931;SDS011;39844;52.496;13.482;2024-03-02T07:38:22;20.60;;;11.80;;
53931;SDS011;39844;52.496;13.482;2024-03-02T07:40:48;20.23;;;11.40;;
53931;SDS011;39844;52.496;13.482;2024-03-02T07:43:14;20.43;;;12.50;;
53931;SDS011;39844;52.496;13.482;2024-03-02T07:45:39;22.37;;;11.37;;
53931;SDS011;39844;52.496;13.482;2024-03-02T07:48:05;18.87;;;11.10;;
53931;SDS011;39844;52.496;13.482;2024-03-02T07:50:31;18.40;;;10.77;;
53931;SDS011;39844;52.496;13.482;2024-03-02T07:52:56;16.33;;;11.23;;
53931;SDS011;39844;52.496;13.482;2024-03-02T07:55:22;16.00;;;10.13;;
53931;SDS011;39844;52.496;13.482;2024-03-02T07:57:47;16.33;;;10.20;;
53931;SDS011;39844;52.496;13.482;2024-03-02T08:00:12;20.80;;;11.70;;
53931;SDS011;39844;52.496;13.482;2024-03-02T08:02:38;18.13;;;10.50;;
53931;SDS011;39844;52.496;13.482;2024-03-02T08:05:05;19.00;;;11.80;;
53931;SDS011;39844;52.496;13.482;2024-03-02T08:07:31;25.10;;;12.33;;
53931;SDS011;39844;52.496;13.482;2024-03-02T08:09:56;18.90;;;11.20;;
53931;SDS011;39844;52.496;13.482;2024-03-02T08:12:22;20.67;;;11.10;;
53931;SDS011;39844;52.496;13.482;2024-03-02T08:14:47;19.70;;;11.33;;
53931;SDS011;39844;52.496;13.482;2024-03-02T08:17:12;21.53;;;11.43;;
53931;SDS011;39844;52.496;13.482;2024-03-02T08:19:37;22.03;;;11.23;;
53931;SDS011;39844;52.496;13.482;2024-03-02T08:22:03;22.43;;;11.90;;
53931;SDS011;39844;52.496;13.482;2024-03-02T08:24:28;22.80;;;12.17;;
53931;SDS011;39844;52.496;13.482;2024-03-02T08:26:53;21.17;;;10.23;;
53931;SDS011;39844;52.496;13.482;2024-03-02T08:29:19;18.83;;;10.40;;
53931;SDS011;39844;52.496;13.482;2024-03-02T08:31:44;21.90;;;12.03;;
53931;SDS011;39844;52.496;13.482;2024-03-02T08:34:09;21.20;;;12.03;;
53931;SDS011;39844;52.496;13.482;2024-03-02T08:36:35;21.13;;;11.80;;
53931;SDS011;39844;52.496;13.482;2024-03-02T08:39:00;18.83;;;9.97;;
53931;SDS011;39844;52.496;13.482;2024-03-02T08:41:26;22.27;;;10.80;;
53931;SDS011;39844;52.496;13.482;2024-03-02T08:43:51;24.07;;;12.30;;
53931;SDS011;39844;52.496;13.482;2024-03-02T08:46:16;18.90;;;10.70;;
53931;SDS011;39844;52.496;13.482;2024-03-02T08:48:42;22.47;;;11.13;;
53931;SDS011;39844;52.496;13.482;2024-03-02T08:51:07;18.10;;;11.23;;
53931;SDS011;39844;52.496;13.482;2024-03-02T08:53:32;22.53;;;11.70;;
53931;SDS011;39844;52.496;13.482;2024-03-02T08:55:58;20.67;;;11.47;;
53931;SDS011;39844;52.496;13.482;2024-03-02T08:58:23;24.90;;;12.20;;
53931;SDS011;39844;52.496;13.482;2024-03-02T09:00:49;18.63;;;11.50;;
53931;SDS011;39844;52.496;13.482;2024-03-02T09:03:14;18.33;;;11.07;;
53931;SDS011;39844;52.496;13.482;2024-03-02T09:05:39;25.30;;;12.03;;
53931;SDS011;39844;52.496;13.482;2024-03-02T09:08:05;24.90;;;12.37;;
53931;SDS011;39844;52.496;13.482;2024-03-02T09:10:30;20.37;;;11.90;;
53931;SDS011;39844;52.496;13.482;2024-03-02T09:12:55;19.10;;;11.50;;
53931;SDS011;39844;52.496;13.482;2024-03-02T09:15:21;17.37;;;10.53;;
53931;SDS011;39844;52.496;13.482;2024-03-02T09:17:46;18.67;;;11.17;;
53931;SDS011;39844;52.496;13.482;2024-03-02T09:20:11;20.00;;;11.33;;
53931;SDS011;39844;52.496;13.482;2024-03-02T09:22:37;18.37;;;10.93;;
53931;SDS011;39844;52.496;13.482;2024-03-02T09:25:02;19.43;;;11.30;;
53931;SDS011;39844;52.496;13.482;2024-03-02T09:27:27;17.50;;;10.57;;
53931;SDS011;39844;52.496;13.482;2024-03-02T09:29:53;17.73;;;10.07;;
53931;SDS011;39844;52.496;13.482;2024-03-02T09:32:18;18.23;;;10.70;;
53931;SDS011;39844;52.496;13.482;2024-03-02T09:34:43;18.63;;;10.47;;
53931;SDS011;39844;52.496;13.482;2024-03-02T09:37:09;16.27;;;9.77;;
53931;SDS011;39844;52.496;13.482;2024-03-02T09:39:34;20.17;;;11.47;;
53931;SDS011;39844;52.496;13.482;2024-03-02T09:41:59;20.40;;;10.47;;
53931;SDS011;39844;52.496;13.482;2024-03-02T09:44:29;17.93;;;10.27;;
53931;SDS011;39844;52.496;13.482;2024-03-02T09:46:54;19.90;;;11.00;;
53931;SDS011;39844;52.496;13.482;2024-03-02T09:49:19;21.20;;;10.90;;
53931;SDS011;39844;52.496;13.482;2024-03-02T09:51:48;17.47;;;11.20;;
53931;SDS011;39844;52.496;13.482;2024-03-02T09:54:17;18.90;;;10.33;;
53931;SDS011;39844;52.496;13.482;2024-03-02T09:56:42;22.60;;;11.97;;
53931;SDS011;39844;52.496;13.482;2024-03-02T09:59:07;20.93;;;11.07;;
53931;SDS011;39844;52.496;13.482;2024-03-02T10:01:33;20.27;;;10.90;;
53931;SDS011;39844;52.496;13.482;2024-03-02T10:03:59;18.20;;;9.47;;
53931;SDS011;39844;52.496;13.482;2024-03-02T10:06:25;15.57;;;9.67;;
53931;SDS011;39844;52.496;13.482;2024-03-02T10:08:52;18.83;;;9.97;;
53931;SDS011;39844;52.496;13.482;2024-03-02T10:11:31;17.40;;;10.23;;
53931;SDS011;39844;52.496;13.482;2024-03-02T10:14:08;18.73;;;9.30;;
53931;SDS011;39844;52.496;13.482;2024-03-02T10:16:38;14.50;;;9.43;;
53931;SDS011;39844;52.496;13.482;2024-03-02T10:19:17;18.60;;;9.40;;
53931;SDS011;39844;52.496;13.482;2024-03-02T10:21:47;16.50;;;9.63;;
53931;SDS011;39844;52.496;13.482;2024-03-02T10:24:13;16.50;;;10.23;;
53931;SDS011;39844;52.496;13.482;2024-03-02T10:26:39;17.07;;;9.00;;
53931;SDS011;39844;52.496;13.482;2024-03-02T10:29:04;16.00;;;9.40;;
53931;SDS011;39844;52.496;13.482;2024-03-02T10:31:30;17.17;;;9.80;;
53931;SDS011;39844;52.496;13.482;2024-03-02T10:33:55;17.10;;;9.33;;
53931;SDS011;39844;52.496;13.482;2024-03-02T10:36:21;14.30;;;8.80;;
53931;SDS011;39844;52.496;13.482;2024-03-02T10:38:46;20.27;;;8.97;;
53931;SDS011;39844;52.496;13.482;2024-03-02T10:41:12;14.03;;;7.97;;
53931;SDS011;39844;52.496;13.482;2024-03-02T10:43:41;16.80;;;7.90;;
53931;SDS011;39844;52.496;13.482;2024-03-02T10:46:07;15.77;;;8.60;;
53931;SDS011;39844;52.496;13.482;2024-03-02T10:48:32;12.83;;;8.07;;
53931;SDS011;39844;52.496;13.482;2024-03-02T10:51:00;15.33;;;8.43;;
53931;SDS011;39844;52.496;13.482;2024-03-02T10:53:25;15.93;;;7.57;;
53931;SDS011;39844;52.496;13.482;2024-03-02T10:55:51;16.90;;;8.20;;
53931;SDS011;39844;52.496;13.482;2024-03-02T10:58:22;14.93;;;8.13;;
53931;SDS011;39844;52.496;13.482;2024-03-02T11:00:52;12.97;;;8.10;;
53931;SDS011;39844;52.496;13.482;2024-03-02T11:03:19;11.37;;;7.27;;
53931;SDS011;39844;52.496;13.482;2024-03-02T11:05:44;11.93;;;7.73;;
53931;SDS011;39844;52.496;13.482;2024-03-02T11:08:13;14.13;;;7.70;;
53931;SDS011;39844;52.496;13.482;2024-03-02T11:10:41;14.23;;;8.07;;
53931;SDS011;39844;52.496;13.482;2024-03-02T11:13:16;11.60;;;7.43;;
53931;SDS011;39844;52.496;13.482;2024-03-02T11:15:47;15.10;;;8.17;;
53931;SDS011;39844;52.496;13.482;2024-03-02T11:18:13;16.90;;;8.10;;
53931;SDS011;39844;52.496;13.482;2024-03-02T11:20:40;15.00;;;7.43;;
53931;SDS011;39844;52.496;13.482;2024-03-02T11:23:07;19.07;;;8.47;;
53931;SDS011;39844;52.496;13.482;2024-03-02T11:25:33;14.10;;;9.13;;
53931;SDS011;39844;52.496;13.482;2024-03-02T11:27:59;12.63;;;7.47;;
53931;SDS011;39844;52.496;13.482;2024-03-02T11:31:11;13.80;;;7.70;;
53931;SDS011;39844;52.496;13.482;2024-03-02T11:33:11;12.20;;;6.93;;
53931;SDS011;39844;52.496;13.482;2024-03-02T11:35:37;18.27;;;8.93;;
53931;SDS011;39844;52.496;13.482;2024-03-02T11:38:03;15.50;;;8.33;;
53931;SDS011;39844;52.496;13.482;2024-03-02T11:40:29;15.70;;;7.80;;
53931;SDS011;39844;52.496;13.482;2024-03-02T11:42:55;15.20;;;8.43;;
53931;SDS011;39844;52.496;13.482;2024-03-02T11:45:24;13.40;;;8.63;;
53931;SDS011;39844;52.496;13.482;2024-03-02T11:47:50;13.57;;;7.80;;
53931;SDS011;39844;52.496;13.482;2024-03-02T11:50:28;16.10;;;8.50;;
53931;SDS011;39844;52.496;13.482;2024-03-02T11:53:14;16.37;;;8.50;;
53931;SDS011;39844;52.496;13.482;2024-03-02T11:55:39;15.37;;;7.77;;
53931;SDS011;39844;52.496;13.482;2024-03-02T11:58:05;18.37;;;8.47;;
53931;SDS011;39844;52.496;13.482;2024-03-02T12:00:30;13.60;;;7.63;;
53931;SDS011;39844;52.496;13.482;2024-03-02T12:03:06;16.50;;;7.80;;
53931;SDS011;39844;52.496;13.482;2024-03-02T12:05:33;15.20;;;7.10;;
53931;SDS011;39844;52.496;13.482;2024-03-02T12:08:00;8.93;;;6.40;;
53931;SDS011;39844;52.496;13.482;2024-03-02T12:10:27;12.10;;;6.93;;
53931;SDS011;39844;52.496;13.482;2024-03-02T12:12:59;11.43;;;6.87;;
53931;SDS011;39844;52.496;13.482;2024-03-02T12:15:29;12.47;;;7.07;;
53931;SDS011;39844;52.496;13.482;2024-03-02T12:17:56;14.00;;;7.13;;
53931;SDS011;39844;52.496;13.482;2024-03-02T12:20:23;11.67;;;6.60;;
53931;SDS011;39844;52.496;13.482;2024-03-02T12:22:50;14.00;;;7.30;;
53931;SDS011;39844;52.496;13.482;2024-03-02T12:25:16;14.70;;;8.23;;
53931;SDS011;39844;52.496;13.482;2024-03-02T12:27:42;11.87;;;7.60;;
53931;SDS011;39844;52.496;13.482;2024-03-02T12:30:07;17.27;;;7.10;;
53931;SDS011;39844;52.496;13.482;2024-03-02T12:32:33;13.50;;;7.40;;
53931;SDS011;39844;52.496;13.482;2024-03-02T12:34:58;11.20;;;7.13;;
53931;SDS011;39844;52.496;13.482;2024-03-02T12:37:24;12.07;;;6.73;;
53931;SDS011;39844;52.496;13.482;2024-03-02T12:39:49;9.53;;;6.20;;
53931;SDS011;39844;52.496;13.482;2024-03-02T12:42:14;10.33;;;6.90;;
53931;SDS011;39844;52.496;13.482;2024-03-02T12:44:39;12.30;;;7.07;;
53931;SDS011;39844;52.496;13.482;2024-03-02T12:47:05;11.97;;;7.47;;
53931;SDS011;39844;52.496;13.482;2024-03-02T12:49:30;9.80;;;6.33;;
53931;SDS011;39844;52.496;13.482;2024-03-02T12:51:55;13.67;;;7.77;;
53931;SDS011;39844;52.496;13.482;2024-03-02T12:54:22;12.33;;;6.63;;
53931;SDS011;39844;52.496;13.482;2024-03-02T12:56:47;9.47;;;6.23;;
53931;SDS011;39844;52.496;13.482;2024-03-02T12:59:20;11.13;;;6.43;;
53931;SDS011;39844;52.496;13.482;2024-03-02T13:01:55;8.57;;;6.20;;
53931;SDS011;39844;52.496;13.482;2024-03-02T13:04:27;12.30;;;6.90;;
53931;SDS011;39844;52.496;13.482;2024-03-02T13:06:54;10.33;;;6.07;;
53931;SDS011;39844;52.496;13.482;2024-03-02T13:09:20;11.43;;;6.20;;
53931;SDS011;39844;52.496;13.482;2024-03-02T13:11:46;10.47;;;6.30;;
53931;SDS011;39844;52.496;13.482;2024-03-02T13:14:11;9.10;;;6.27;;
53931;SDS011;39844;52.496;13.482;2024-03-02T13:16:40;10.63;;;5.60;;
53931;SDS011;39844;52.496;13.482;2024-03-02T13:19:11;7.70;;;5.17;;
53931;SDS011;39844;52.496;13.482;2024-03-02T13:21:36;9.87;;;5.77;;
53931;SDS011;39844;52.496;13.482;2024-03-02T13:24:01;11.07;;;6.53;;
53931;SDS011;39844;52.496;13.482;2024-03-02T13:26:27;10.33;;;5.87;;
53931;SDS011;39844;52.496;13.482;2024-03-02T13:28:52;9.43;;;6.17;;
53931;SDS011;39844;52.496;13.482;2024-03-02T13:31:17;9.87;;;6.13;;
53931;SDS011;39844;52.496;13.482;2024-03-02T13:33:42;11.83;;;5.60;;
53931;SDS011;39844;52.496;13.482;2024-03-02T13:36:08;9.97;;;6.40;;
53931;SDS011;39844;52.496;13.482;2024-03-02T13:38:33;10.93;;;6.60;;
53931;SDS011;39844;52.496;13.482;2024-03-02T13:40:58;11.73;;;6.33;;
53931;SDS011;39844;52.496;13.482;2024-03-02T13:43:24;8.97;;;6.00;;
53931;SDS011;39844;52.496;13.482;2024-03-02T13:45:49;10.47;;;5.60;;
53931;SDS011;39844;52.496;13.482;2024-03-02T13:48:14;9.97;;;6.23;;
53931;SDS011;39844;52.496;13.482;2024-03-02T13:50:40;8.20;;;5.83;;
53931;SDS011;39844;52.496;13.482;2024-03-02T13:53:05;9.43;;;6.20;;
53931;SDS011;39844;52.496;13.482;2024-03-02T13:55:30;11.20;;;6.03;;
53931;SDS011;39844;52.496;13.482;2024-03-02T13:57:56;12.07;;;6.03;;
53931;SDS011;39844;52.496;13.482;2024-03-02T14:00:21;8.87;;;5.50;;
53931;SDS011;39844;52.496;13.482;2024-03-02T14:02:46;10.33;;;6.33;;
53931;SDS011;39844;52.496;13.482;2024-03-02T14:05:12;10.03;;;5.50;;
53931;SDS011;39844;52.496;13.482;2024-03-02T14:07:37;10.13;;;5.93;;
53931;SDS011;39844;52.496;13.482;2024-03-02T14:10:03;6.80;;;4.53;;
53931;SDS011;39844;52.496;13.482;2024-03-02T14:12:29;9.40;;;5.77;;